sensor_id;sensor_type;location;lat;lon;timestamp;P1;durP1;ratioP1;P2;durP2;ratioP2
29550;SDS011;16488;52.396;10.696;2023-07-24T00:01:15;1.83;;;1.37;;
29550;SDS011;16488;52.396;10.696;2023-07-24T00:03:42;2.22;;;1.40;;
29550;SDS011;16488;52.396;10.696;2023-07-24T00:06:08;3.92;;;1.65;;
29550;SDS011;16488;52.396;10.696;2023-07-24T00:08:34;1.30;;;1.00;;
29550;SDS011;16488;52.396;10.696;2023-07-24T00:11:00;4.53;;;1.58;;
29550;SDS011;16488;52.396;10.696;2023-07-24T00:13:27;2.45;;;1.42;;
29550;SDS011;16488;52.396;10.696;2023-07-24T00:15:53;2.65;;;1.20;;
29550;SDS011;16488;52.396;10.696;2023-07-24T00:18:19;3.13;;;1.60;;
29550;SDS011;16488;52.396;10.696;2023-07-24T00:20:44;1.88;;;1.35;;
29550;SDS011;16488;52.396;10.696;2023-07-24T00:23:10;2.00;;;1.70;;
29550;SDS011;16488;52.396;10.696;2023-07-24T00:25:36;1.95;;;1.38;;
29550;SDS011;16488;52.396;10.696;2023-07-24T00:28:02;4.20;;;1.92;;
29550;SDS011;16488;52.396;10.696;2023-07-24T00:30:27;5.40;;;1.50;;
29550;SDS011;16488;52.396;10.696;2023-07-24T00:32:53;1.80;;;1.53;;
29550;SDS011;16488;52.396;10.696;2023-07-24T00:35:19;2.63;;;1.50;;
29550;SDS011;16488;52.396;10.696;2023-07-24T00:37:44;2.97;;;1.43;;
29550;SDS011;16488;52.396;10.696;2023-07-24T00:40:10;5.55;;;1.48;;
29550;SDS011;16488;52.396;10.696;2023-07-24T00:42:36;2.78;;;2.03;;
29550;SDS011;16488;52.396;10.696;2023-07-24T00:45:01;4.32;;;1.85;;
29550;SDS011;16488;52.396;10.696;2023-07-24T00:47:27;8.32;;;1.90;;
29550;SDS011;16488;52.396;10.696;2023-07-24T00:49:53;2.45;;;1.58;;
29550;SDS011;16488;52.396;10.696;2023-07-24T00:52:20;3.05;;;1.85;;
29550;SDS011;16488;52.396;10.696;2023-07-24T00:57:12;1.73;;;1.63;;
29550;SDS011;16488;52.396;10.696;2023-07-24T00:59:38;1.90;;;1.45;;
29550;SDS011;16488;52.396;10.696;2023-07-24T01:02:04;3.17;;;1.73;;
29550;SDS011;16488;52.396;10.696;2023-07-24T01:04:30;1.98;;;1.70;;
29550;SDS011;16488;52.396;10.696;2023-07-24T01:06:55;1.92;;;1.75;;
29550;SDS011;16488;52.396;10.696;2023-07-24T01:09:21;2.10;;;1.85;;
29550;SDS011;16488;52.396;10.696;2023-07-24T01:11:47;3.40;;;1.55;;
29550;SDS011;16488;52.396;10.696;2023-07-24T01:14:21;4.40;;;2.13;;
29550;SDS011;16488;52.396;10.696;2023-07-24T01:17:01;2.40;;;1.60;;
29550;SDS011;16488;52.396;10.696;2023-07-24T01:25:00;2.28;;;1.80;;
29550;SDS011;16488;52.396;10.696;2023-07-24T01:27:34;1.77;;;1.52;;
29550;SDS011;16488;52.396;10.696;2023-07-24T01:30:00;4.07;;;1.83;;
29550;SDS011;16488;52.396;10.696;2023-07-24T01:32:25;4.63;;;1.80;;
29550;SDS011;16488;52.396;10.696;2023-07-24T01:34:52;2.40;;;1.63;;
29550;SDS011;16488;52.396;10.696;2023-07-24T01:39:45;1.90;;;1.67;;
29550;SDS011;16488;52.396;10.696;2023-07-24T01:42:11;5.90;;;1.52;;
29550;SDS011;16488;52.396;10.696;2023-07-24T01:44:37;2.83;;;1.65;;
29550;SDS011;16488;52.396;10.696;2023-07-24T01:47:03;3.28;;;1.80;;
29550;SDS011;16488;52.396;10.696;2023-07-24T01:49:29;2.38;;;1.80;;
29550;SDS011;16488;52.396;10.696;2023-07-24T01:51:55;2.17;;;1.63;;
29550;SDS011;16488;52.396;10.696;2023-07-24T01:54:22;2.80;;;1.58;;
29550;SDS011;16488;52.396;10.696;2023-07-24T01:56:50;4.38;;;1.40;;
29550;SDS011;16488;52.396;10.696;2023-07-24T01:59:17;2.60;;;1.88;;
29550;SDS011;16488;52.396;10.696;2023-07-24T02:01:43;2.47;;;1.70;;
29550;SDS011;16488;52.396;10.696;2023-07-24T02:04:09;2.53;;;1.45;;
29550;SDS011;16488;52.396;10.696;2023-07-24T02:06:34;2.23;;;1.67;;
29550;SDS011;16488;52.396;10.696;2023-07-24T02:09:00;3.83;;;1.83;;
29550;SDS011;16488;52.396;10.696;2023-07-24T02:11:25;4.60;;;1.70;;
29550;SDS011;16488;52.396;10.696;2023-07-24T02:13:51;2.77;;;1.40;;
29550;SDS011;16488;52.396;10.696;2023-07-24T02:16:16;2.60;;;1.52;;
29550;SDS011;16488;52.396;10.696;2023-07-24T02:18:42;2.00;;;1.47;;
29550;SDS011;16488;52.396;10.696;2023-07-24T02:21:08;2.20;;;1.70;;
29550;SDS011;16488;52.396;10.696;2023-07-24T02:23:34;2.38;;;1.80;;
29550;SDS011;16488;52.396;10.696;2023-07-24T02:26:00;3.22;;;1.98;;
29550;SDS011;16488;52.396;10.696;2023-07-24T02:28:26;2.30;;;1.58;;
29550;SDS011;16488;52.396;10.696;2023-07-24T02:30:52;4.00;;;1.85;;
29550;SDS011;16488;52.396;10.696;2023-07-24T02:33:21;2.88;;;2.00;;
29550;SDS011;16488;52.396;10.696;2023-07-24T02:35:47;2.33;;;1.80;;
29550;SDS011;16488;52.396;10.696;2023-07-24T02:40:40;2.40;;;1.77;;
29550;SDS011;16488;52.396;10.696;2023-07-24T02:43:06;4.97;;;2.10;;
29550;SDS011;16488;52.396;10.696;2023-07-24T02:45:34;2.43;;;1.50;;
29550;SDS011;16488;52.396;10.696;2023-07-24T02:48:01;4.47;;;2.30;;
29550;SDS011;16488;52.396;10.696;2023-07-24T02:50:27;5.03;;;1.75;;
29550;SDS011;16488;52.396;10.696;2023-07-24T02:52:53;2.03;;;1.77;;
29550;SDS011;16488;52.396;10.696;2023-07-24T02:55:19;2.92;;;1.60;;
29550;SDS011;16488;52.396;10.696;2023-07-24T02:57:44;2.07;;;1.67;;
29550;SDS011;16488;52.396;10.696;2023-07-24T03:00:10;2.85;;;1.90;;
29550;SDS011;16488;52.396;10.696;2023-07-24T03:02:36;3.92;;;2.10;;
29550;SDS011;16488;52.396;10.696;2023-07-24T03:05:02;3.28;;;2.08;;
29550;SDS011;16488;52.396;10.696;2023-07-24T03:07:28;3.50;;;2.20;;
29550;SDS011;16488;52.396;10.696;2023-07-24T03:09:54;3.60;;;1.83;;
29550;SDS011;16488;52.396;10.696;2023-07-24T03:12:20;1.73;;;1.60;;
29550;SDS011;16488;52.396;10.696;2023-07-24T03:14:46;2.40;;;1.70;;
29550;SDS011;16488;52.396;10.696;2023-07-24T03:17:12;2.72;;;2.00;;
29550;SDS011;16488;52.396;10.696;2023-07-24T03:19:38;3.78;;;2.10;;
29550;SDS011;16488;52.396;10.696;2023-07-24T03:22:05;2.38;;;1.70;;
29550;SDS011;16488;52.396;10.696;2023-07-24T03:24:31;1.83;;;1.60;;
29550;SDS011;16488;52.396;10.696;2023-07-24T03:26:56;1.87;;;1.67;;
29550;SDS011;16488;52.396;10.696;2023-07-24T03:29:22;3.70;;;2.08;;
29550;SDS011;16488;52.396;10.696;2023-07-24T03:31:47;2.97;;;2.17;;
29550;SDS011;16488;52.396;10.696;2023-07-24T03:34:13;4.25;;;1.80;;
29550;SDS011;16488;52.396;10.696;2023-07-24T03:36:39;2.95;;;1.80;;
29550;SDS011;16488;52.396;10.696;2023-07-24T03:39:07;3.28;;;2.33;;
29550;SDS011;16488;52.396;10.696;2023-07-24T03:41:34;2.70;;;1.90;;
29550;SDS011;16488;52.396;10.696;2023-07-24T03:43:59;2.65;;;1.60;;
29550;SDS011;16488;52.396;10.696;2023-07-24T03:46:25;2.13;;;1.87;;
29550;SDS011;16488;52.396;10.696;2023-07-24T03:48:51;2.28;;;1.67;;
29550;SDS011;16488;52.396;10.696;2023-07-24T03:51:16;3.75;;;2.58;;
29550;SDS011;16488;52.396;10.696;2023-07-24T03:53:42;2.20;;;1.73;;
29550;SDS011;16488;52.396;10.696;2023-07-24T03:56:07;2.93;;;2.00;;
29550;SDS011;16488;52.396;10.696;2023-07-24T03:58:33;2.77;;;1.63;;
29550;SDS011;16488;52.396;10.696;2023-07-24T04:00:59;2.10;;;1.65;;
29550;SDS011;16488;52.396;10.696;2023-07-24T04:03:24;2.53;;;1.75;;
29550;SDS011;16488;52.396;10.696;2023-07-24T04:05:50;2.95;;;2.08;;
29550;SDS011;16488;52.396;10.696;2023-07-24T04:08:16;3.83;;;2.17;;
29550;SDS011;16488;52.396;10.696;2023-07-24T04:10:41;4.57;;;2.22;;
29550;SDS011;16488;52.396;10.696;2023-07-24T04:13:07;2.57;;;1.97;;
29550;SDS011;16488;52.396;10.696;2023-07-24T04:15:32;2.10;;;1.73;;
29550;SDS011;16488;52.396;10.696;2023-07-24T04:17:58;3.83;;;2.60;;
29550;SDS011;16488;52.396;10.696;2023-07-24T04:20:24;6.65;;;2.70;;
29550;SDS011;16488;52.396;10.696;2023-07-24T04:22:49;4.32;;;2.88;;
29550;SDS011;16488;52.396;10.696;2023-07-24T04:25:15;5.27;;;2.50;;
29550;SDS011;16488;52.396;10.696;2023-07-24T04:27:40;4.47;;;2.95;;
29550;SDS011;16488;52.396;10.696;2023-07-24T04:30:06;5.03;;;2.05;;
29550;SDS011;16488;52.396;10.696;2023-07-24T04:32:32;3.42;;;2.22;;
29550;SDS011;16488;52.396;10.696;2023-07-24T04:34:58;3.92;;;2.58;;
29550;SDS011;16488;52.396;10.696;2023-07-24T04:37:23;4.83;;;2.10;;
29550;SDS011;16488;52.396;10.696;2023-07-24T04:39:49;4.10;;;2.37;;
29550;SDS011;16488;52.396;10.696;2023-07-24T04:42:15;3.60;;;2.50;;
29550;SDS011;16488;52.396;10.696;2023-07-24T04:44:40;4.18;;;1.95;;
29550;SDS011;16488;52.396;10.696;2023-07-24T04:47:06;2.85;;;2.33;;
29550;SDS011;16488;52.396;10.696;2023-07-24T04:49:31;4.03;;;2.27;;
29550;SDS011;16488;52.396;10.696;2023-07-24T04:51:58;5.57;;;2.50;;
29550;SDS011;16488;52.396;10.696;2023-07-24T04:54:24;3.78;;;2.03;;
29550;SDS011;16488;52.396;10.696;2023-07-24T04:56:50;4.75;;;2.65;;
29550;SDS011;16488;52.396;10.696;2023-07-24T04:59:15;4.57;;;2.25;;
29550;SDS011;16488;52.396;10.696;2023-07-24T05:01:41;5.68;;;2.50;;
29550;SDS011;16488;52.396;10.696;2023-07-24T05:04:07;6.28;;;2.42;;
29550;SDS011;16488;52.396;10.696;2023-07-24T05:06:33;4.03;;;2.53;;
29550;SDS011;16488;52.396;10.696;2023-07-24T05:09:00;3.90;;;2.58;;
29550;SDS011;16488;52.396;10.696;2023-07-24T05:13:52;2.88;;;2.53;;
29550;SDS011;16488;52.396;10.696;2023-07-24T05:16:17;3.27;;;2.37;;
29550;SDS011;16488;52.396;10.696;2023-07-24T05:18:43;4.27;;;2.07;;
29550;SDS011;16488;52.396;10.696;2023-07-24T05:21:08;3.40;;;2.45;;
29550;SDS011;16488;52.396;10.696;2023-07-24T05:23:34;5.07;;;2.28;;
29550;SDS011;16488;52.396;10.696;2023-07-24T05:26:00;6.57;;;2.30;;
29550;SDS011;16488;52.396;10.696;2023-07-24T05:28:28;3.97;;;2.53;;
29550;SDS011;16488;52.396;10.696;2023-07-24T05:30:54;3.47;;;1.90;;
29550;SDS011;16488;52.396;10.696;2023-07-24T05:33:20;5.80;;;1.98;;
29550;SDS011;16488;52.396;10.696;2023-07-24T05:35:46;5.10;;;1.90;;
29550;SDS011;16488;52.396;10.696;2023-07-24T05:38:11;3.00;;;1.80;;
29550;SDS011;16488;52.396;10.696;2023-07-24T05:40:37;4.25;;;2.33;;
29550;SDS011;16488;52.396;10.696;2023-07-24T05:43:02;4.77;;;2.40;;
29550;SDS011;16488;52.396;10.696;2023-07-24T05:45:29;3.97;;;2.33;;
29550;SDS011;16488;52.396;10.696;2023-07-24T05:47:54;5.75;;;2.20;;
29550;SDS011;16488;52.396;10.696;2023-07-24T05:50:20;7.25;;;2.22;;
29550;SDS011;16488;52.396;10.696;2023-07-24T05:52:45;3.72;;;2.22;;
29550;SDS011;16488;52.396;10.696;2023-07-24T05:55:11;4.70;;;2.08;;
29550;SDS011;16488;52.396;10.696;2023-07-24T05:57:37;4.05;;;2.08;;
29550;SDS011;16488;52.396;10.696;2023-07-24T06:00:03;3.33;;;2.00;;
29550;SDS011;16488;52.396;10.696;2023-07-24T06:02:29;2.83;;;1.98;;
29550;SDS011;16488;52.396;10.696;2023-07-24T06:04:55;4.47;;;1.90;;
29550;SDS011;16488;52.396;10.696;2023-07-24T06:07:20;4.28;;;2.35;;
29550;SDS011;16488;52.396;10.696;2023-07-24T06:09:46;4.68;;;2.17;;
29550;SDS011;16488;52.396;10.696;2023-07-24T06:12:11;2.90;;;2.08;;
29550;SDS011;16488;52.396;10.696;2023-07-24T06:14:37;2.45;;;2.17;;
29550;SDS011;16488;52.396;10.696;2023-07-24T06:17:03;3.42;;;2.05;;
29550;SDS011;16488;52.396;10.696;2023-07-24T06:19:28;4.30;;;2.35;;
29550;SDS011;16488;52.396;10.696;2023-07-24T06:21:54;3.15;;;2.20;;
29550;SDS011;16488;52.396;10.696;2023-07-24T06:24:20;4.07;;;2.30;;
29550;SDS011;16488;52.396;10.696;2023-07-24T06:26:45;4.45;;;2.80;;
29550;SDS011;16488;52.396;10.696;2023-07-24T06:29:11;4.40;;;2.60;;
29550;SDS011;16488;52.396;10.696;2023-07-24T06:31:37;3.13;;;2.10;;
29550;SDS011;16488;52.396;10.696;2023-07-24T06:34:02;4.38;;;2.28;;
29550;SDS011;16488;52.396;10.696;2023-07-24T06:36:28;4.07;;;2.22;;
29550;SDS011;16488;52.396;10.696;2023-07-24T06:38:53;4.57;;;2.97;;
29550;SDS011;16488;52.396;10.696;2023-07-24T06:41:19;8.05;;;2.28;;
29550;SDS011;16488;52.396;10.696;2023-07-24T06:43:46;3.40;;;2.08;;
29550;SDS011;16488;52.396;10.696;2023-07-24T06:46:11;5.20;;;2.57;;
29550;SDS011;16488;52.396;10.696;2023-07-24T06:48:37;3.78;;;2.38;;
29550;SDS011;16488;52.396;10.696;2023-07-24T06:51:03;3.63;;;2.47;;
29550;SDS011;16488;52.396;10.696;2023-07-24T06:53:28;4.53;;;2.15;;
29550;SDS011;16488;52.396;10.696;2023-07-24T06:55:54;4.75;;;2.35;;
29550;SDS011;16488;52.396;10.696;2023-07-24T06:58:20;2.60;;;2.20;;
29550;SDS011;16488;52.396;10.696;2023-07-24T07:00:45;4.30;;;2.40;;
29550;SDS011;16488;52.396;10.696;2023-07-24T07:03:11;3.67;;;2.40;;
29550;SDS011;16488;52.396;10.696;2023-07-24T07:05:37;3.85;;;2.63;;
29550;SDS011;16488;52.396;10.696;2023-07-24T07:08:03;2.70;;;1.95;;
29550;SDS011;16488;52.396;10.696;2023-07-24T07:10:30;6.75;;;2.38;;
29550;SDS011;16488;52.396;10.696;2023-07-24T07:12:56;7.13;;;2.60;;
29550;SDS011;16488;52.396;10.696;2023-07-24T07:15:22;3.10;;;1.93;;
29550;SDS011;16488;52.396;10.696;2023-07-24T07:17:47;4.57;;;2.90;;
29550;SDS011;16488;52.396;10.696;2023-07-24T07:20:13;4.22;;;2.38;;
29550;SDS011;16488;52.396;10.696;2023-07-24T07:22:39;3.83;;;2.42;;
29550;SDS011;16488;52.396;10.696;2023-07-24T07:25:04;8.77;;;2.13;;
29550;SDS011;16488;52.396;10.696;2023-07-24T07:27:30;3.60;;;2.30;;
29550;SDS011;16488;52.396;10.696;2023-07-24T07:29:56;7.72;;;2.55;;
29550;SDS011;16488;52.396;10.696;2023-07-24T07:32:23;3.50;;;2.78;;
29550;SDS011;16488;52.396;10.696;2023-07-24T07:34:48;4.97;;;2.50;;
29550;SDS011;16488;52.396;10.696;2023-07-24T07:37:14;5.25;;;2.65;;
29550;SDS011;16488;52.396;10.696;2023-07-24T07:39:39;3.50;;;2.20;;
29550;SDS011;16488;52.396;10.696;2023-07-24T07:42:05;5.80;;;3.07;;
29550;SDS011;16488;52.396;10.696;2023-07-24T07:44:30;6.13;;;3.00;;
29550;SDS011;16488;52.396;10.696;2023-07-24T07:46:57;5.85;;;2.55;;
29550;SDS011;16488;52.396;10.696;2023-07-24T07:49:22;8.15;;;2.60;;
29550;SDS011;16488;52.396;10.696;2023-07-24T07:51:48;7.43;;;3.03;;
29550;SDS011;16488;52.396;10.696;2023-07-24T07:54:13;6.15;;;2.70;;
29550;SDS011;16488;52.396;10.696;2023-07-24T07:56:42;7.63;;;2.33;;
29550;SDS011;16488;52.396;10.696;2023-07-24T07:59:08;4.53;;;2.97;;
29550;SDS011;16488;52.396;10.696;2023-07-24T08:01:35;6.35;;;2.95;;
29550;SDS011;16488;52.396;10.696;2023-07-24T08:04:01;10.98;;;2.95;;
29550;SDS011;16488;52.396;10.696;2023-07-24T08:06:27;4.57;;;2.80;;
29550;SDS011;16488;52.396;10.696;2023-07-24T08:08:53;4.18;;;2.88;;
29550;SDS011;16488;52.396;10.696;2023-07-24T08:11:18;5.97;;;3.00;;
29550;SDS011;16488;52.396;10.696;2023-07-24T08:13:44;4.97;;;2.73;;
29550;SDS011;16488;52.396;10.696;2023-07-24T08:16:16;4.53;;;3.10;;
29550;SDS011;16488;52.396;10.696;2023-07-24T08:18:44;5.28;;;2.70;;
29550;SDS011;16488;52.396;10.696;2023-07-24T08:21:11;4.75;;;3.08;;
29550;SDS011;16488;52.396;10.696;2023-07-24T08:23:38;4.85;;;2.55;;
29550;SDS011;16488;52.396;10.696;2023-07-24T08:26:04;5.10;;;3.05;;
29550;SDS011;16488;52.396;10.696;2023-07-24T08:28:30;7.07;;;3.30;;
29550;SDS011;16488;52.396;10.696;2023-07-24T08:30:56;5.28;;;3.42;;
29550;SDS011;16488;52.396;10.696;2023-07-24T08:33:24;5.72;;;3.33;;
29550;SDS011;16488;52.396;10.696;2023-07-24T08:36:03;5.00;;;2.63;;
29550;SDS011;16488;52.396;10.696;2023-07-24T08:38:31;6.55;;;3.15;;
29550;SDS011;16488;52.396;10.696;2023-07-24T08:41:04;6.57;;;2.83;;
29550;SDS011;16488;52.396;10.696;2023-07-24T08:43:37;5.78;;;3.42;;
29550;SDS011;16488;52.396;10.696;2023-07-24T08:46:04;7.55;;;3.13;;
29550;SDS011;16488;52.396;10.696;2023-07-24T08:48:31;6.68;;;3.33;;
29550;SDS011;16488;52.396;10.696;2023-07-24T08:51:01;6.97;;;3.33;;
29550;SDS011;16488;52.396;10.696;2023-07-24T08:53:28;6.00;;;3.35;;
29550;SDS011;16488;52.396;10.696;2023-07-24T08:55:55;7.95;;;3.15;;
29550;SDS011;16488;52.396;10.696;2023-07-24T08:58:21;7.38;;;3.92;;
29550;SDS011;16488;52.396;10.696;2023-07-24T09:00:47;5.80;;;3.45;;
29550;SDS011;16488;52.396;10.696;2023-07-24T09:03:13;7.30;;;3.55;;
29550;SDS011;16488;52.396;10.696;2023-07-24T09:05:39;6.85;;;3.35;;
29550;SDS011;16488;52.396;10.696;2023-07-24T09:08:04;5.13;;;3.03;;
29550;SDS011;16488;52.396;10.696;2023-07-24T09:10:30;9.20;;;3.67;;
29550;SDS011;16488;52.396;10.696;2023-07-24T09:12:55;8.15;;;3.40;;
29550;SDS011;16488;52.396;10.696;2023-07-24T09:15:21;6.82;;;3.63;;
29550;SDS011;16488;52.396;10.696;2023-07-24T09:17:48;12.43;;;2.92;;
29550;SDS011;16488;52.396;10.696;2023-07-24T09:20:17;10.82;;;3.70;;
29550;SDS011;16488;52.396;10.696;2023-07-24T09:22:50;7.78;;;3.00;;
29550;SDS011;16488;52.396;10.696;2023-07-24T09:25:17;9.27;;;3.67;;
29550;SDS011;16488;52.396;10.696;2023-07-24T09:27:43;6.10;;;3.42;;
29550;SDS011;16488;52.396;10.696;2023-07-24T09:30:12;9.32;;;3.42;;
29550;SDS011;16488;52.396;10.696;2023-07-24T09:32:39;3.28;;;2.92;;
29550;SDS011;16488;52.396;10.696;2023-07-24T09:35:26;4.07;;;2.70;;
29550;SDS011;16488;52.396;10.696;2023-07-24T09:40:41;7.07;;;3.03;;
29550;SDS011;16488;52.396;10.696;2023-07-24T09:43:41;6.03;;;2.92;;
29550;SDS011;16488;52.396;10.696;2023-07-24T09:46:06;4.10;;;2.47;;
29550;SDS011;16488;52.396;10.696;2023-07-24T09:48:33;4.03;;;2.63;;
29550;SDS011;16488;52.396;10.696;2023-07-24T09:51:00;5.07;;;2.53;;
29550;SDS011;16488;52.396;10.696;2023-07-24T09:53:33;3.65;;;2.70;;
29550;SDS011;16488;52.396;10.696;2023-07-24T09:56:04;4.15;;;2.90;;
29550;SDS011;16488;52.396;10.696;2023-07-24T09:58:35;4.15;;;2.78;;
29550;SDS011;16488;52.396;10.696;2023-07-24T10:01:03;4.03;;;2.97;;
29550;SDS011;16488;52.396;10.696;2023-07-24T10:03:38;4.38;;;3.38;;
29550;SDS011;16488;52.396;10.696;2023-07-24T10:06:05;6.05;;;3.20;;
29550;SDS011;16488;52.396;10.696;2023-07-24T10:08:36;6.47;;;3.95;;
29550;SDS011;16488;52.396;10.696;2023-07-24T10:11:03;4.18;;;2.63;;
29550;SDS011;16488;52.396;10.696;2023-07-24T10:13:29;8.75;;;3.08;;
29550;SDS011;16488;52.396;10.696;2023-07-24T10:15:55;9.60;;;3.35;;
29550;SDS011;16488;52.396;10.696;2023-07-24T10:18:27;4.75;;;3.08;;
29550;SDS011;16488;52.396;10.696;2023-07-24T10:21:01;5.28;;;3.42;;
29550;SDS011;16488;52.396;10.696;2023-07-24T10:23:35;4.13;;;2.63;;
29550;SDS011;16488;52.396;10.696;2023-07-24T10:26:02;4.57;;;3.33;;
29550;SDS011;16488;52.396;10.696;2023-07-24T10:28:30;5.60;;;2.97;;
29550;SDS011;16488;52.396;10.696;2023-07-24T10:31:00;6.30;;;3.22;;
29550;SDS011;16488;52.396;10.696;2023-07-24T10:33:29;4.63;;;3.03;;
29550;SDS011;16488;52.396;10.696;2023-07-24T10:36:03;5.70;;;3.33;;
29550;SDS011;16488;52.396;10.696;2023-07-24T10:38:39;12.25;;;3.28;;
29550;SDS011;16488;52.396;10.696;2023-07-24T10:41:07;6.93;;;2.80;;
29550;SDS011;16488;52.396;10.696;2023-07-24T10:43:44;6.22;;;3.38;;
29550;SDS011;16488;52.396;10.696;2023-07-24T10:46:17;5.38;;;3.22;;
29550;SDS011;16488;52.396;10.696;2023-07-24T10:48:45;3.30;;;2.80;;
29550;SDS011;16488;52.396;10.696;2023-07-24T10:51:15;4.32;;;2.75;;
29550;SDS011;16488;52.396;10.696;2023-07-24T10:53:43;4.03;;;2.80;;
29550;SDS011;16488;52.396;10.696;2023-07-24T10:56:13;5.82;;;3.75;;
29550;SDS011;16488;52.396;10.696;2023-07-24T11:01:05;7.07;;;3.90;;
29550;SDS011;16488;52.396;10.696;2023-07-24T11:03:31;5.68;;;3.95;;
29550;SDS011;16488;52.396;10.696;2023-07-24T11:05:58;4.13;;;3.08;;
29550;SDS011;16488;52.396;10.696;2023-07-24T11:08:24;5.65;;;3.60;;
29550;SDS011;16488;52.396;10.696;2023-07-24T11:10:50;6.55;;;2.85;;
29550;SDS011;16488;52.396;10.696;2023-07-24T11:13:17;8.48;;;3.47;;
29550;SDS011;16488;52.396;10.696;2023-07-24T11:15:45;7.28;;;3.40;;
29550;SDS011;16488;52.396;10.696;2023-07-24T11:18:11;3.83;;;3.00;;
29550;SDS011;16488;52.396;10.696;2023-07-24T11:20:38;3.58;;;2.90;;
29550;SDS011;16488;52.396;10.696;2023-07-24T11:23:17;6.95;;;3.40;;
29550;SDS011;16488;52.396;10.696;2023-07-24T11:25:43;4.28;;;3.50;;
29550;SDS011;16488;52.396;10.696;2023-07-24T11:28:10;4.45;;;3.20;;
29550;SDS011;16488;52.396;10.696;2023-07-24T11:30:37;4.78;;;3.22;;
29550;SDS011;16488;52.396;10.696;2023-07-24T11:33:05;3.83;;;3.00;;
29550;SDS011;16488;52.396;10.696;2023-07-24T11:35:34;5.88;;;3.35;;
29550;SDS011;16488;52.396;10.696;2023-07-24T11:38:01;4.22;;;2.83;;
29550;SDS011;16488;52.396;10.696;2023-07-24T11:40:38;6.10;;;3.15;;
29550;SDS011;16488;52.396;10.696;2023-07-24T11:43:18;4.07;;;2.42;;
29550;SDS011;16488;52.396;10.696;2023-07-24T11:45:45;5.25;;;2.78;;
29550;SDS011;16488;52.396;10.696;2023-07-24T11:48:13;6.45;;;3.08;;
29550;SDS011;16488;52.396;10.696;2023-07-24T11:50:45;4.15;;;2.83;;
29550;SDS011;16488;52.396;10.696;2023-07-24T11:53:18;5.95;;;2.60;;
29550;SDS011;16488;52.396;10.696;2023-07-24T11:55:47;3.70;;;2.47;;
29550;SDS011;16488;52.396;10.696;2023-07-24T11:58:14;3.55;;;2.83;;
29550;SDS011;16488;52.396;10.696;2023-07-24T12:00:42;2.83;;;2.35;;
29550;SDS011;16488;52.396;10.696;2023-07-24T12:03:07;5.10;;;2.65;;
29550;SDS011;16488;52.396;10.696;2023-07-24T12:05:40;3.42;;;2.50;;
29550;SDS011;16488;52.396;10.696;2023-07-24T12:08:06;3.97;;;2.33;;
29550;SDS011;16488;52.396;10.696;2023-07-24T12:13:00;3.45;;;2.30;;
29550;SDS011;16488;52.396;10.696;2023-07-24T12:15:26;4.70;;;2.78;;
29550;SDS011;16488;52.396;10.696;2023-07-24T12:17:52;5.05;;;3.25;;
29550;SDS011;16488;52.396;10.696;2023-07-24T12:20:18;7.88;;;3.17;;
29550;SDS011;16488;52.396;10.696;2023-07-24T12:22:43;7.65;;;3.13;;
29550;SDS011;16488;52.396;10.696;2023-07-24T12:25:09;5.05;;;2.92;;
29550;SDS011;16488;52.396;10.696;2023-07-24T12:27:35;4.55;;;3.03;;
29550;SDS011;16488;52.396;10.696;2023-07-24T12:30:02;4.57;;;2.65;;
29550;SDS011;16488;52.396;10.696;2023-07-24T12:32:28;6.38;;;3.13;;
29550;SDS011;16488;52.396;10.696;2023-07-24T12:34:54;4.07;;;2.80;;
29550;SDS011;16488;52.396;10.696;2023-07-24T12:37:19;5.82;;;3.53;;
29550;SDS011;16488;52.396;10.696;2023-07-24T12:39:46;4.25;;;3.10;;
29550;SDS011;16488;52.396;10.696;2023-07-24T12:42:12;7.28;;;3.25;;
29550;SDS011;16488;52.396;10.696;2023-07-24T12:44:38;8.43;;;3.55;;
29550;SDS011;16488;52.396;10.696;2023-07-24T12:47:04;7.85;;;3.05;;
29550;SDS011;16488;52.396;10.696;2023-07-24T12:49:29;4.53;;;3.25;;
29550;SDS011;16488;52.396;10.696;2023-07-24T12:51:55;6.38;;;3.50;;
29550;SDS011;16488;52.396;10.696;2023-07-24T12:54:21;5.80;;;3.20;;
29550;SDS011;16488;52.396;10.696;2023-07-24T12:56:48;4.22;;;3.03;;
29550;SDS011;16488;52.396;10.696;2023-07-24T13:01:39;4.50;;;3.30;;
29550;SDS011;16488;52.396;10.696;2023-07-24T13:04:05;4.70;;;3.30;;
29550;SDS011;16488;52.396;10.696;2023-07-24T13:06:31;5.32;;;3.03;;
29550;SDS011;16488;52.396;10.696;2023-07-24T13:08:56;5.75;;;3.17;;
29550;SDS011;16488;52.396;10.696;2023-07-24T13:11:22;5.00;;;3.58;;
29550;SDS011;16488;52.396;10.696;2023-07-24T13:13:47;7.15;;;2.72;;
29550;SDS011;16488;52.396;10.696;2023-07-24T13:16:15;5.25;;;3.13;;
29550;SDS011;16488;52.396;10.696;2023-07-24T13:21:07;3.45;;;2.65;;
29550;SDS011;16488;52.396;10.696;2023-07-24T13:23:33;3.83;;;3.20;;
29550;SDS011;16488;52.396;10.696;2023-07-24T13:25:58;4.47;;;2.90;;
29550;SDS011;16488;52.396;10.696;2023-07-24T13:28:24;6.32;;;3.28;;
29550;SDS011;16488;52.396;10.696;2023-07-24T13:30:50;6.25;;;3.40;;
29550;SDS011;16488;52.396;10.696;2023-07-24T13:33:15;5.43;;;3.67;;
29550;SDS011;16488;52.396;10.696;2023-07-24T13:35:41;6.93;;;3.92;;
29550;SDS011;16488;52.396;10.696;2023-07-24T13:38:06;5.88;;;3.63;;
29550;SDS011;16488;52.396;10.696;2023-07-24T13:40:36;5.28;;;4.15;;
29550;SDS011;16488;52.396;10.696;2023-07-24T13:43:02;6.90;;;4.90;;
29550;SDS011;16488;52.396;10.696;2023-07-24T13:45:28;6.18;;;5.18;;
29550;SDS011;16488;52.396;10.696;2023-07-24T13:47:54;8.13;;;5.03;;
29550;SDS011;16488;52.396;10.696;2023-07-24T13:50:21;7.07;;;4.80;;
29550;SDS011;16488;52.396;10.696;2023-07-24T13:52:47;9.73;;;5.17;;
29550;SDS011;16488;52.396;10.696;2023-07-24T13:55:12;6.00;;;5.13;;
29550;SDS011;16488;52.396;10.696;2023-07-24T13:57:39;6.88;;;4.90;;
29550;SDS011;16488;52.396;10.696;2023-07-24T14:00:05;7.55;;;5.38;;
29550;SDS011;16488;52.396;10.696;2023-07-24T14:02:31;6.65;;;5.22;;
29550;SDS011;16488;52.396;10.696;2023-07-24T14:04:58;7.43;;;5.55;;
29550;SDS011;16488;52.396;10.696;2023-07-24T14:07:24;7.47;;;4.60;;
29550;SDS011;16488;52.396;10.696;2023-07-24T14:09:50;5.22;;;4.25;;
29550;SDS011;16488;52.396;10.696;2023-07-24T14:12:15;6.40;;;5.07;;
29550;SDS011;16488;52.396;10.696;2023-07-24T14:14:41;7.68;;;5.22;;
29550;SDS011;16488;52.396;10.696;2023-07-24T14:17:07;5.68;;;4.30;;
29550;SDS011;16488;52.396;10.696;2023-07-24T14:19:32;5.10;;;4.03;;
29550;SDS011;16488;52.396;10.696;2023-07-24T14:21:58;8.68;;;4.10;;
29550;SDS011;16488;52.396;10.696;2023-07-24T14:24:24;4.85;;;3.20;;
29550;SDS011;16488;52.396;10.696;2023-07-24T14:26:49;4.85;;;3.67;;
29550;SDS011;16488;52.396;10.696;2023-07-24T14:29:15;5.60;;;3.40;;
29550;SDS011;16488;52.396;10.696;2023-07-24T14:31:44;7.28;;;3.28;;
29550;SDS011;16488;52.396;10.696;2023-07-24T14:34:09;7.13;;;3.40;;
29550;SDS011;16488;52.396;10.696;2023-07-24T14:36:37;7.72;;;3.70;;
29550;SDS011;16488;52.396;10.696;2023-07-24T14:39:06;6.10;;;3.75;;
29550;SDS011;16488;52.396;10.696;2023-07-24T14:41:33;6.95;;;3.78;;
29550;SDS011;16488;52.396;10.696;2023-07-24T14:44:05;6.10;;;3.95;;
29550;SDS011;16488;52.396;10.696;2023-07-24T14:46:30;6.72;;;3.33;;
29550;SDS011;16488;52.396;10.696;2023-07-24T14:48:56;4.20;;;3.70;;
29550;SDS011;16488;52.396;10.696;2023-07-24T14:51:21;4.25;;;3.28;;
29550;SDS011;16488;52.396;10.696;2023-07-24T14:53:48;4.10;;;3.40;;
29550;SDS011;16488;52.396;10.696;2023-07-24T14:56:14;4.77;;;3.20;;
29550;SDS011;16488;52.396;10.696;2023-07-24T14:58:41;4.32;;;2.90;;